Time;durP1;ratioP1;P1;durP2;ratioP2;P2;SDS_P1;SDS_P2;PMS_P1;PMS_P2;Temp;Humidity;BMP_temperature;BMP_pressure;BME280_temperature;BME280_humidity;BME280_pressure;Samples;Min_cycle;Max_cycle;Signal;HPM_P1;HPM_P2
2022/12/26 00:01:46;;;;;;;0.40;0.40;;;14.90;92.20;;;;;;5072139;28;20223;-65
2022/12/26 00:04:34;;;;;;;0.40;0.40;;;14.90;92.30;;;;;;5071270;28;20248;-65
2022/12/26 00:07:39;;;;;;;0.40;0.40;;;14.90;92.30;;;;;;5071810;28;20529;-65
2022/12/26 00:10:27;;;;;;;0.40;0.40;;;14.80;92.20;;;;;;5070788;28;20707;-65
2022/12/26 00:13:17;;;;;;;0.40;0.40;;;14.90;92.20;;;;;;5071588;28;20423;-65
2022/12/26 00:16:25;;;;;;;0.40;0.40;;;14.90;92.20;;;;;;5071671;28;20211;-65
2022/12/26 00:19:13;;;;;;;0.40;0.40;;;14.80;92.20;;;;;;5070732;28;20196;-65
2022/12/26 00:22:02;;;;;;;0.40;0.40;;;14.90;92.30;;;;;;5071081;28;20583;-65
2022/12/26 00:24:50;;;;;;;0.40;0.40;;;14.80;92.30;;;;;;5071218;28;20311;-65
2022/12/26 00:27:38;;;;;;;0.40;0.40;;;14.80;92.40;;;;;;5071982;28;20484;-65
2022/12/26 00:30:27;;;;;;;0.40;0.40;;;14.90;92.30;;;;;;5071760;28;20228;-65
2022/12/26 00:33:15;;;;;;;0.40;0.40;;;14.80;92.40;;;;;;5072190;28;20192;-65
2022/12/26 00:36:06;;;;;;;0.40;0.40;;;14.90;92.50;;;;;;5072198;28;20193;-65
2022/12/26 00:38:54;;;;;;;0.40;0.40;;;14.90;92.50;;;;;;5071190;28;20203;-65
2022/12/26 00:41:42;;;;;;;0.40;0.40;;;14.90;92.40;;;;;;5071366;28;20651;-65
2022/12/26 00:44:30;;;;;;;0.40;0.40;;;14.90;92.40;;;;;;5071925;28;20419;-67
2022/12/26 00:47:19;;;;;;;0.40;0.40;;;14.90;92.40;;;;;;5071161;28;20200;-65
2022/12/26 00:50:08;;;;;;;0.40;0.40;;;14.90;92.50;;;;;;5071407;28;20510;-65
2022/12/26 00:53:01;;;;;;;0.40;0.40;;;14.90;92.60;;;;;;5070899;28;20450;-65
2022/12/26 00:55:50;;;;;;;0.43;0.43;;;15.10;92.60;;;;;;5071099;28;21057;-65
2022/12/26 00:58:40;;;;;;;0.40;0.40;;;15.00;92.50;;;;;;5071841;28;20223;-65
2022/12/26 01:01:29;;;;;;;0.40;0.40;;;15.00;92.30;;;;;;5070211;28;20228;-65
2022/12/26 01:04:19;;;;;;;0.40;0.40;;;15.00;92.40;;;;;;5070575;28;20205;-65
2022/12/26 01:07:07;;;;;;;0.40;0.40;;;15.00;92.30;;;;;;5071648;28;20662;-65
2022/12/26 01:09:55;;;;;;;0.50;0.50;;;15.00;92.30;;;;;;5070271;28;20197;-65
2022/12/26 01:12:43;;;;;;;0.40;0.40;;;15.00;92.30;;;;;;5070837;28;21047;-65
2022/12/26 01:15:31;;;;;;;0.40;0.40;;;15.00;92.30;;;;;;5070339;28;20796;-65
2022/12/26 01:18:20;;;;;;;1.70;1.60;;;15.00;92.20;;;;;;5072847;28;20285;-65
2022/12/26 01:21:10;;;;;;;0.50;0.50;;;15.00;92.20;;;;;;5073164;28;20303;-65
2022/12/26 01:23:59;;;;;;;0.40;0.40;;;14.90;92.30;;;;;;5074149;28;20284;-65
2022/12/26 01:26:47;;;;;;;0.40;0.40;;;15.00;92.40;;;;;;5074631;28;20840;-65
2022/12/26 01:29:35;;;;;;;0.40;0.40;;;15.00;92.30;;;;;;5074666;28;20211;-65
2022/12/26 01:32:23;;;;;;;0.40;0.40;;;15.00;92.30;;;;;;5074977;28;20321;-65
2022/12/26 01:35:11;;;;;;;0.40;0.40;;;15.00;92.30;;;;;;5073959;28;20272;-65
2022/12/26 01:38:00;;;;;;;0.50;0.50;;;15.00;92.30;;;;;;5075705;28;20276;-65
2022/12/26 01:41:15;;;;;;;0.40;0.40;;;15.00;95.00;;;;;;5074497;28;20284;-65
2022/12/26 01:43:58;;;;;;;0.40;0.40;;;15.00;92.30;;;;;;5073895;28;20327;-65
2022/12/26 01:46:46;;;;;;;0.40;0.40;;;15.00;92.30;;;;;;5074269;28;20305;-65
2022/12/26 01:49:37;;;;;;;0.40;0.40;;;15.00;92.30;;;;;;5073101;28;20282;-65
2022/12/26 01:52:32;;;;;;;0.40;0.40;;;15.00;92.40;;;;;;5074255;28;20256;-64
2022/12/26 01:55:22;;;;;;;0.40;0.40;;;15.00;92.40;;;;;;5074105;28;20579;-65
2022/12/26 01:58:15;;;;;;;0.40;0.40;;;15.00;92.50;;;;;;5075048;28;20199;-65
2022/12/26 02:01:06;;;;;;;0.40;0.40;;;15.00;92.50;;;;;;5073045;28;20295;-65
2022/12/26 02:07:15;;;;;;;0.40;0.40;;;15.00;92.60;;;;;;5012440;28;20296;-65
2022/12/26 02:10:07;;;;;;;0.40;0.40;;;15.00;92.50;;;;;;5011284;28;20751;-65
2022/12/26 02:12:57;;;;;;;0.40;0.40;;;15.00;92.60;;;;;;5067162;28;20311;-65
2022/12/26 02:15:46;;;;;;;0.40;0.40;;;15.00;92.60;;;;;;5074531;28;20454;-65
2022/12/26 02:18:34;;;;;;;0.40;0.40;;;15.00;92.50;;;;;;5074154;28;20207;-65
2022/12/26 02:22:02;;;;;;;0.40;0.40;;;15.00;92.60;;;;;;5073691;28;20221;-65
2022/12/26 02:25:11;;;;;;;0.40;0.40;;;15.00;92.60;;;;;;5073152;28;20286;-65
2022/12/26 02:28:31;;;;;;;0.40;0.40;;;15.00;92.60;;;;;;5072658;28;20510;-65
2022/12/26 02:31:26;;;;;;;0.40;0.40;;;15.00;92.50;;;;;;5071918;28;20315;-65
2022/12/26 02:34:19;;;;;;;0.40;0.40;;;15.00;92.50;;;;;;5073995;28;20427;-65
2022/12/26 02:37:20;;;;;;;0.40;0.40;;;15.10;92.50;;;;;;5073876;28;20621;-65
2022/12/26 02:40:36;;;;;;;0.40;0.40;;;15.10;92.50;;;;;;5072373;28;20207;-65
2022/12/26 02:43:37;;;;;;;1.90;1.80;;;15.10;92.50;;;;;;5072608;28;20200;-65
2022/12/26 03:18:50;;;;;;;0.40;0.40;;;15.00;92.50;;;;;;5055297;28;20204;-65
2022/12/26 03:21:47;;;;;;;0.40;0.40;;;15.00;92.50;;;;;;5072009;28;20224;-67
2022/12/26 03:26:38;;;;;;;0.40;0.40;;;15.00;92.60;;;;;;5071715;28;20283;-65
2022/12/26 03:27:46;;;;;;;0.40;0.40;;;15.00;92.70;;;;;;5070951;28;20728;-65
2022/12/26 03:30:50;;;;;;;0.40;0.40;;;15.00;92.60;;;;;;5070860;28;20279;-65
2022/12/26 03:36:59;;;;;;;0.40;0.40;;;15.00;92.70;;;;;;5071879;28;20200;-65
2022/12/26 04:44:06;;;;;;;0.40;0.40;;;15.10;92.70;;;;;;5070645;28;20608;-65
2022/12/26 04:46:56;;;;;;;0.40;0.40;;;15.10;92.70;;;;;;5070576;28;20285;-65
2022/12/26 04:52:59;;;;;;;0.40;0.40;;;15.10;92.80;;;;;;5073497;28;20308;-65
2022/12/26 04:55:49;;;;;;;0.40;0.40;;;15.10;92.80;;;;;;5074315;28;20207;-65
2022/12/26 04:58:37;;;;;;;0.40;0.40;;;15.10;92.80;;;;;;5055306;28;20246;-65
2022/12/26 05:10:43;;;;;;;0.40;0.40;;;15.10;92.90;;;;;;5055028;28;20616;-65
2022/12/26 05:13:32;;;;;;;0.40;0.40;;;15.10;93.00;;;;;;5054718;28;20277;-65
2022/12/26 05:28:55;;;;;;;0.40;0.40;;;15.10;93.10;;;;;;5054920;28;20193;-65
2022/12/26 05:31:43;;;;;;;0.40;0.40;;;15.10;92.90;;;;;;5054453;28;20455;-65
2022/12/26 05:34:31;;;;;;;0.40;0.40;;;15.10;93.00;;;;;;5053948;28;20197;-65
2022/12/26 05:37:19;;;;;;;0.40;0.40;;;15.20;92.90;;;;;;5053823;28;20271;-65
2022/12/26 05:40:08;;;;;;;0.40;0.40;;;15.20;92.90;;;;;;5054790;28;20459;-65
2022/12/26 05:42:57;;;;;;;0.40;0.40;;;15.10;92.80;;;;;;5054358;28;20525;-65
2022/12/26 05:45:46;;;;;;;0.40;0.40;;;15.10;92.90;;;;;;5055341;28;20259;-65
2022/12/26 05:48:34;;;;;;;0.40;0.40;;;15.20;93.00;;;;;;5054011;28;20221;-65
2022/12/26 05:51:22;;;;;;;0.40;0.40;;;15.20;93.20;;;;;;5053397;28;20225;-65
2022/12/26 05:54:10;;;;;;;0.40;0.40;;;15.20;93.00;;;;;;5054864;28;20521;-65
2022/12/26 05:57:00;;;;;;;0.40;0.40;;;15.20;93.00;;;;;;5054797;28;20200;-65
2022/12/26 05:59:48;;;;;;;0.40;0.40;;;15.20;92.90;;;;;;5053447;28;20254;-64
2022/12/26 06:02:37;;;;;;;0.40;0.40;;;15.20;92.90;;;;;;5053562;28;20221;-65
2022/12/26 06:05:26;;;;;;;0.40;0.40;;;15.10;92.90;;;;;;5053341;28;20201;-65
2022/12/26 06:08:14;;;;;;;0.40;0.40;;;15.10;92.90;;;;;;5054146;28;20268;-65
2022/12/26 06:11:06;;;;;;;0.40;0.40;;;15.10;92.90;;;;;;5053321;28;20342;-65
2022/12/26 06:13:54;;;;;;;0.40;0.40;;;15.10;92.90;;;;;;5054538;28;20200;-65
2022/12/26 06:16:43;;;;;;;0.40;0.40;;;15.20;93.00;;;;;;5053438;28;20193;-65
2022/12/26 06:19:32;;;;;;;0.40;0.40;;;15.10;93.00;;;;;;5054219;28;20209;-65
2022/12/26 06:22:20;;;;;;;0.40;0.40;;;15.10;93.00;;;;;;5053696;28;20303;-65
2022/12/26 06:25:09;;;;;;;0.40;0.40;;;15.10;93.00;;;;;;5054558;28;20336;-65
2022/12/26 06:27:57;;;;;;;0.40;0.40;;;15.10;92.90;;;;;;5053290;28;20261;-65
2022/12/26 06:30:45;;;;;;;0.40;0.40;;;15.40;97.60;;;;;;5052255;28;20424;-65
2022/12/26 06:33:33;;;;;;;0.40;0.40;;;15.10;93.00;;;;;;5063108;23;20292;-69
2022/12/26 06:36:25;;;;;;;0.40;0.40;;;15.10;93.00;;;;;;5036328;28;20244;-68
2022/12/26 06:39:13;;;;;;;0.40;0.40;;;15.10;93.00;;;;;;5036993;28;20251;-71
2022/12/26 06:42:01;;;;;;;0.40;0.40;;;15.20;93.10;;;;;;5036459;28;20710;-74
2022/12/26 06:44:49;;;;;;;0.40;0.40;;;15.20;93.10;;;;;;5037297;28;20719;-71
2022/12/26 06:47:37;;;;;;;0.40;0.40;;;15.10;93.00;;;;;;5036514;28;20706;-70
2022/12/26 06:50:25;;;;;;;0.40;0.40;;;15.20;93.10;;;;;;5036739;28;20518;-71
2022/12/26 06:53:15;;;;;;;0.40;0.40;;;15.20;93.20;;;;;;5037416;28;20222;-70
2022/12/26 06:56:07;;;;;;;0.40;0.40;;;15.20;93.10;;;;;;5036246;28;20229;-69
2022/12/26 06:58:57;;;;;;;0.40;0.40;;;15.20;93.20;;;;;;5036361;28;20205;-68
2022/12/26 07:01:45;;;;;;;0.40;0.40;;;14.80;93.90;;;;;;5036783;28;20198;-68
2022/12/26 07:04:33;;;;;;;0.40;0.40;;;15.20;93.10;;;;;;5037395;28;20705;-69
2022/12/26 07:07:21;;;;;;;0.40;0.40;;;15.10;93.20;;;;;;5036511;28;20257;-69
2022/12/26 07:10:11;;;;;;;0.40;0.40;;;15.10;93.50;;;;;;5036068;28;20226;-69
2022/12/26 07:12:59;;;;;;;0.40;0.40;;;15.20;93.20;;;;;;5036102;28;20257;-69
2022/12/26 07:15:47;;;;;;;0.40;0.40;;;15.20;93.30;;;;;;5036319;28;20281;-68
2022/12/26 07:18:36;;;;;;;0.40;0.40;;;15.20;93.20;;;;;;5037388;28;20202;-69
2022/12/26 07:21:25;;;;;;;0.40;0.40;;;15.20;93.10;;;;;;5036150;28;20201;-68
2022/12/26 07:24:16;;;;;;;0.40;0.40;;;15.20;93.20;;;;;;5036943;28;20276;-69
2022/12/26 07:27:05;;;;;;;0.40;0.40;;;15.20;93.10;;;;;;5036220;28;20210;-69
2022/12/26 07:29:53;;;;;;;0.40;0.40;;;15.20;93.10;;;;;;5036735;28;20210;-68
2022/12/26 07:32:41;;;;;;;0.40;0.40;;;15.10;93.10;;;;;;5035664;28;20240;-68
2022/12/26 07:35:29;;;;;;;0.40;0.40;;;15.20;93.10;;;;;;5035749;28;20287;-69
2022/12/26 07:38:17;;;;;;;0.40;0.40;;;15.20;93.10;;;;;;5035791;28;20206;-69
2022/12/26 07:44:10;;;;;;;0.40;0.40;;;15.20;93.10;;;;;;5036262;28;20244;-69
2022/12/26 07:46:59;;;;;;;0.47;0.47;;;15.20;93.30;;;;;;5035352;28;20620;-69
2022/12/26 07:49:47;;;;;;;0.40;0.40;;;15.20;93.10;;;;;;5035047;28;20252;-69
2022/12/26 07:52:36;;;;;;;0.50;0.50;;;15.20;93.30;;;;;;5035681;28;20642;-71
2022/12/26 07:55:24;;;;;;;0.40;0.40;;;15.20;93.20;;;;;;5035488;28;20281;-68
2022/12/26 07:58:12;;;;;;;0.40;0.40;;;15.20;93.20;;;;;;5035798;28;20229;-69
2022/12/26 08:01:02;;;;;;;0.40;0.40;;;15.20;93.30;;;;;;5035504;28;20285;-69
2022/12/26 08:03:51;;;;;;;0.40;0.40;;;15.20;93.40;;;;;;5035742;28;20222;-69
2022/12/26 08:06:40;;;;;;;0.40;0.40;;;15.20;93.40;;;;;;5035583;28;20198;-68
2022/12/26 08:09:28;;;;;;;0.40;0.40;;;15.20;93.20;;;;;;5035653;28;20222;-72
2022/12/26 08:12:20;;;;;;;0.40;0.40;;;15.20;93.40;;;;;;5034970;28;20268;-71
2022/12/26 08:15:09;;;;;;;0.40;0.40;;;15.20;93.40;;;;;;5035061;28;20263;-69
2022/12/26 08:17:59;;;;;;;0.40;0.40;;;15.20;93.20;;;;;;5035231;28;20201;-69
2022/12/26 08:20:47;;;;;;;0.40;0.40;;;15.20;93.40;;;;;;5035169;28;20436;-69
2022/12/26 08:23:36;;;;;;;0.40;0.40;;;15.20;93.20;;;;;;5035503;28;20356;-68
2022/12/26 08:26:24;;;;;;;0.40;0.40;;;15.20;93.30;;;;;;5034762;28;20230;-69
2022/12/26 08:29:12;;;;;;;0.40;0.40;;;15.20;93.20;;;;;;5035369;28;20309;-71
2022/12/26 08:32:00;;;;;;;0.40;0.40;;;15.20;93.20;;;;;;5034447;28;20321;-69
2022/12/26 08:34:49;;;;;;;0.40;0.40;;;15.20;93.20;;;;;;5035218;28;20277;-69
2022/12/26 08:37:38;;;;;;;0.40;0.40;;;15.20;93.30;;;;;;5035121;28;20229;-68
2022/12/26 08:40:26;;;;;;;0.40;0.40;;;15.20;93.30;;;;;;5034837;28;20268;-68
2022/12/26 08:43:30;;;;;;;0.40;0.40;;;15.20;93.30;;;;;;5034341;28;20308;-69
2022/12/26 08:46:38;;;;;;;0.40;0.40;;;15.20;93.30;;;;;;5035273;28;20197;-68
2022/12/26 08:49:26;;;;;;;0.40;0.40;;;15.20;93.30;;;;;;5034558;28;20308;-68
2022/12/26 08:52:16;;;;;;;0.40;0.40;;;15.20;93.30;;;;;;5034417;28;20690;-69
2022/12/26 08:55:05;;;;;;;0.40;0.40;;;15.20;93.30;;;;;;5035562;28;20206;-68
2022/12/26 08:57:53;;;;;;;0.40;0.40;;;15.20;93.40;;;;;;5034737;28;20268;-69
2022/12/26 09:00:41;;;;;;;0.40;0.40;;;15.20;93.40;;;;;;5034680;28;20218;-69
2022/12/26 09:03:29;;;;;;;1.00;0.98;;;15.20;93.40;;;;;;5034830;28;20258;-69
2022/12/26 09:06:17;;;;;;;0.40;0.40;;;15.20;93.40;;;;;;5035020;28;20206;-69
2022/12/26 09:09:10;;;;;;;0.40;0.40;;;15.20;93.40;;;;;;5035322;28;20413;-69
2022/12/26 09:11:58;;;;;;;0.40;0.40;;;15.20;93.40;;;;;;5034578;28;20222;-69
2022/12/26 09:14:46;;;;;;;0.40;0.40;;;15.20;93.50;;;;;;5034810;28;20207;-70
2022/12/26 09:17:37;;;;;;;0.40;0.40;;;15.20;93.40;;;;;;5034616;28;20205;-68
2022/12/26 09:20:25;;;;;;;0.40;0.40;;;15.20;93.50;;;;;;5034674;28;20229;-68
2022/12/26 09:23:14;;;;;;;0.40;0.40;;;15.20;93.50;;;;;;5036089;28;20230;-67
2022/12/26 09:26:09;;;;;;;0.40;0.40;;;15.20;93.60;;;;;;5035489;28;20821;-70
2022/12/26 09:28:57;;;;;;;0.40;0.40;;;15.20;93.60;;;;;;5035532;28;20304;-69
2022/12/26 09:31:45;;;;;;;0.40;0.40;;;15.20;99.80;;;;;;5034758;28;20288;-69
2022/12/26 09:34:33;;;;;;;0.40;0.40;;;15.20;93.50;;;;;;5035613;28;20234;-68
2022/12/26 09:37:22;;;;;;;0.40;0.40;;;15.30;93.50;;;;;;5034768;28;20508;-69
2022/12/26 09:40:21;;;;;;;0.40;0.40;;;15.20;93.40;;;;;;5037877;28;20675;-68
2022/12/26 09:43:20;;;;;;;0.40;0.40;;;15.30;93.50;;;;;;5038479;28;20221;-68
2022/12/26 09:46:16;;;;;;;0.40;0.40;;;15.20;93.40;;;;;;5039049;28;20210;-68
2022/12/26 09:49:10;;;;;;;0.40;0.40;;;15.20;93.40;;;;;;5038082;28;20228;-68
2022/12/26 09:52:01;;;;;;;0.40;0.40;;;15.20;93.40;;;;;;5038975;28;20218;-69
2022/12/26 09:54:53;;;;;;;0.40;0.40;;;15.20;93.40;;;;;;5038351;28;20285;-68
2022/12/26 09:57:46;;;;;;;0.40;0.40;;;15.30;93.50;;;;;;5037323;28;20198;-69
2022/12/26 10:00:42;;;;;;;0.40;0.40;;;15.30;93.50;;;;;;5038060;28;20202;-69
2022/12/26 10:03:33;;;;;;;0.40;0.40;;;15.20;93.50;;;;;;5038199;28;20762;-68
2022/12/26 10:06:23;;;;;;;0.40;0.40;;;15.20;93.40;;;;;;5037432;28;20335;-69
2022/12/26 10:09:34;;;;;;;0.40;0.40;;;15.30;93.60;;;;;;5037381;28;20234;-78
2022/12/26 10:12:34;;;;;;;0.60;0.60;;;15.30;93.50;;;;;;5037307;28;20222;-67
2022/12/26 10:15:41;;;;;;;0.40;0.40;;;15.30;93.50;;;;;;5037271;28;20201;-69
2022/12/26 10:18:37;;;;;;;0.40;0.40;;;15.30;93.50;;;;;;5037542;28;20213;-69
2022/12/26 10:21:38;;;;;;;0.40;0.40;;;15.30;93.50;;;;;;5038197;28;20667;-67
2022/12/26 10:24:30;;;;;;;0.40;0.40;;;15.20;93.50;;;;;;5037375;28;20291;-68
2022/12/26 10:27:20;;;;;;;0.40;0.40;;;15.20;93.50;;;;;;5037316;28;20241;-68
2022/12/26 10:30:16;;;;;;;0.40;0.40;;;15.20;93.50;;;;;;5036857;28;20216;-72
2022/12/26 10:33:13;;;;;;;0.40;0.40;;;15.20;93.50;;;;;;5036756;28;20222;-69
2022/12/26 10:36:02;;;;;;;0.40;0.40;;;15.20;93.60;;;;;;5037641;28;20262;-68
2022/12/26 10:38:53;;;;;;;0.40;0.40;;;15.20;93.70;;;;;;5037588;28;20299;-68
2022/12/26 10:41:44;;;;;;;0.40;0.40;;;15.20;93.60;;;;;;5037932;28;20241;-68
2022/12/26 10:44:33;;;;;;;2.30;2.20;;;15.30;93.80;;;;;;5037479;28;20737;-70
2022/12/26 10:47:26;;;;;;;0.40;0.40;;;15.30;93.90;;;;;;5038220;28;20270;-70
2022/12/26 10:50:18;;;;;;;0.40;0.40;;;15.20;93.70;;;;;;5037104;28;20242;-72
2022/12/26 10:53:15;;;;;;;0.40;0.40;;;15.30;93.80;;;;;;5036852;28;20214;-69
2022/12/26 10:56:04;;;;;;;0.40;0.40;;;15.30;93.80;;;;;;5036864;28;20233;-69
2022/12/26 10:59:00;;;;;;;0.40;0.40;;;15.30;93.90;;;;;;5037419;28;20264;-69
2022/12/26 11:01:49;;;;;;;0.40;0.40;;;15.30;93.70;;;;;;5037670;28;20279;-70
2022/12/26 11:04:37;;;;;;;0.40;0.40;;;15.30;93.60;;;;;;5037701;28;20209;-68
2022/12/26 11:07:50;;;;;;;0.40;0.40;;;15.30;93.70;;;;;;5036565;28;20965;-69
2022/12/26 11:10:38;;;;;;;0.40;0.40;;;15.30;93.70;;;;;;5036779;28;20636;-71
2022/12/26 11:13:26;;;;;;;0.40;0.40;;;15.30;93.60;;;;;;5036225;28;20268;-68
2022/12/26 11:16:25;;;;;;;0.40;0.40;;;15.30;93.70;;;;;;5037397;28;20308;-68
2022/12/26 11:19:26;;;;;;;0.40;0.40;;;15.30;93.60;;;;;;5036297;28;20340;-69
2022/12/26 11:22:22;;;;;;;0.40;0.40;;;15.30;93.60;;;;;;5036317;28;20642;-73
2022/12/26 11:25:22;;;;;;;0.40;0.40;;;15.30;93.60;;;;;;5036074;28;20288;-69
2022/12/26 11:28:25;;;;;;;0.40;0.40;;;15.30;93.70;;;;;;5036043;28;20209;-69
2022/12/26 11:31:23;;;;;;;0.40;0.40;;;15.30;93.70;;;;;;5035865;28;20229;-68
2022/12/26 11:34:31;;;;;;;0.40;0.40;;;15.30;93.60;;;;;;5036122;28;20279;-69
2022/12/26 11:37:26;;;;;;;0.40;0.40;;;15.30;93.60;;;;;;5036709;28;20593;-68
2022/12/26 11:40:22;;;;;;;0.40;0.40;;;15.30;93.60;;;;;;5036134;28;20221;-70
2022/12/26 11:43:16;;;;;;;0.40;0.40;;;15.30;93.60;;;;;;5035458;28;20666;-68
2022/12/26 11:46:04;;;;;;;0.40;0.40;;;15.30;93.60;;;;;;5036166;28;20197;-69
2022/12/26 11:48:52;;;;;;;0.40;0.40;;;15.30;93.60;;;;;;5035029;28;20694;-69
2022/12/26 11:51:44;;;;;;;0.40;0.40;;;15.30;93.40;;;;;;5035022;28;20244;-70
2022/12/26 11:54:46;;;;;;;0.40;0.40;;;15.30;93.60;;;;;;5035616;28;20578;-69
2022/12/26 11:57:36;;;;;;;0.40;0.40;;;15.30;93.60;;;;;;5035826;28;20327;-71
2022/12/26 12:00:26;;;;;;;0.40;0.40;;;15.30;93.60;;;;;;5035037;28;20332;-68
2022/12/26 12:03:17;;;;;;;0.40;0.40;;;15.30;93.60;;;;;;5035861;28;20297;-68
2022/12/26 12:06:19;;;;;;;0.40;0.40;;;15.30;93.60;;;;;;5035593;28;20328;-69
2022/12/26 12:09:18;;;;;;;0.40;0.40;;;15.30;93.70;;;;;;5035041;28;20252;-69
2022/12/26 12:12:13;;;;;;;0.40;0.40;;;15.30;93.70;;;;;;5036360;28;20225;-69
2022/12/26 12:15:11;;;;;;;0.40;0.40;;;15.30;93.70;;;;;;5035920;28;20305;-68
2022/12/26 12:18:05;;;;;;;0.40;0.40;;;15.30;93.70;;;;;;5036170;28;20670;-68
2022/12/26 12:21:06;;;;;;;0.40;0.40;;;15.30;93.70;;;;;;5034976;28;20283;-69
2022/12/26 12:24:20;;;;;;;0.40;0.40;;;15.30;93.70;;;;;;5035644;28;20216;-68
2022/12/26 12:27:15;;;;;;;0.40;0.40;;;15.30;93.70;;;;;;5035563;28;20198;-69
2022/12/26 12:30:15;;;;;;;0.40;0.40;;;15.30;93.70;;;;;;5034701;28;20301;-69
2022/12/26 12:33:29;;;;;;;0.40;0.40;;;15.30;93.70;;;;;;5066985;22;20641;-64
2022/12/26 12:36:20;;;;;;;0.40;0.40;;;15.30;93.70;;;;;;5048916;28;20207;-64
2022/12/26 12:39:12;;;;;;;0.40;0.40;;;15.30;93.70;;;;;;5050701;28;20275;-64
2022/12/26 12:42:23;;;;;;;0.40;0.40;;;15.30;93.80;;;;;;5051745;28;20640;-64
2022/12/26 12:45:26;;;;;;;0.40;0.40;;;15.30;93.80;;;;;;5051799;28;20246;-64
2022/12/26 12:48:43;;;;;;;0.40;0.40;;;15.30;93.90;;;;;;5053042;28;20197;-64
2022/12/26 12:51:41;;;;;;;0.40;0.40;;;15.30;93.90;;;;;;5052880;28;20351;-64
2022/12/26 12:54:49;;;;;;;0.40;0.40;;;15.30;93.80;;;;;;5052915;28;20223;-64
2022/12/26 12:57:43;;;;;;;0.40;0.40;;;15.30;93.80;;;;;;5052919;28;20247;-64
2022/12/26 13:00:41;;;;;;;0.40;0.40;;;15.30;93.70;;;;;;5052802;28;20204;-64
2022/12/26 13:03:35;;;;;;;0.40;0.40;;;15.30;93.80;;;;;;5052762;28;20223;-65
2022/12/26 13:06:28;;;;;;;0.40;0.40;;;15.30;93.80;;;;;;5052177;28;20201;-64
2022/12/26 13:09:21;;;;;;;0.40;0.40;;;15.30;93.80;;;;;;5052507;28;20677;-65
2022/12/26 13:12:16;;;;;;;0.40;0.40;;;15.30;93.70;;;;;;5053192;28;20638;-64
2022/12/26 13:15:09;;;;;;;0.40;0.40;;;15.30;93.80;;;;;;5056042;28;20193;-65
2022/12/26 13:18:05;;;;;;;0.40;0.40;;;15.30;93.80;;;;;;5056556;28;20205;-65
2022/12/26 13:20:56;;;;;;;0.40;0.40;;;15.30;93.90;;;;;;5056268;28;20237;-64
2022/12/26 13:27:02;;;;;;;0.40;0.40;;;15.30;93.90;;;;;;5056360;28;20240;-65
2022/12/26 13:29:51;;;;;;;0.40;0.40;;;15.30;93.90;;;;;;5056139;28;20205;-65
2022/12/26 13:32:39;;;;;;;0.40;0.40;;;15.30;93.90;;;;;;5056205;28;20310;-65
2022/12/26 13:35:55;;;;;;;0.40;0.40;;;15.30;93.80;;;;;;5055954;28;20238;-64
2022/12/26 13:39:21;;;;;;;0.40;0.40;;;15.30;93.80;;;;;;5056192;28;20743;-64
2022/12/26 13:45:57;;;;;;;0.40;0.40;;;15.30;93.90;;;;;;5056321;28;20282;-65
2022/12/26 13:49:21;;;;;;;0.40;0.40;;;15.30;93.80;;;;;;5055997;28;20215;-65
2022/12/26 13:52:33;;;;;;;0.40;0.40;;;15.30;93.90;;;;;;5055488;28;20772;-65
2022/12/26 13:55:44;;;;;;;0.40;0.40;;;15.30;93.80;;;;;;5055209;28;20526;-64
2022/12/26 13:58:44;;;;;;;0.40;0.40;;;15.30;93.80;;;;;;5055634;28;20236;-65
2022/12/26 14:01:42;;;;;;;0.40;0.40;;;15.30;93.80;;;;;;5054951;28;20201;-64
2022/12/26 14:04:46;;;;;;;0.40;0.40;;;15.30;93.80;;;;;;5055653;28;20201;-64
2022/12/26 14:07:42;;;;;;;0.40;0.40;;;15.30;93.90;;;;;;5055002;28;20211;-64
2022/12/26 14:10:42;;;;;;;0.40;0.40;;;15.30;93.80;;;;;;5054567;28;20235;-64
2022/12/26 14:13:53;;;;;;;0.40;0.40;;;15.30;93.90;;;;;;5055689;28;20259;-65
2022/12/26 14:16:50;;;;;;;0.40;0.40;;;15.30;93.90;;;;;;5055428;28;20197;-65
2022/12/26 14:19:46;;;;;;;0.40;0.40;;;15.30;93.80;;;;;;5055216;28;20251;-64
2022/12/26 14:22:45;;;;;;;0.40;0.40;;;15.30;93.90;;;;;;5055265;28;20259;-65
2022/12/26 14:25:46;;;;;;;0.40;0.40;;;15.30;93.90;;;;;;5053938;28;20266;-65
2022/12/26 14:28:53;;;;;;;0.40;0.40;;;15.30;93.90;;;;;;5055449;28;20281;-65
2022/12/26 14:31:47;;;;;;;0.40;0.40;;;15.30;93.90;;;;;;5054936;28;20221;-64
2022/12/26 14:34:49;;;;;;;0.40;0.40;;;15.30;93.90;;;;;;5055225;28;20276;-67
2022/12/26 14:37:48;;;;;;;0.40;0.40;;;15.20;93.90;;;;;;5054064;28;20615;-64
2022/12/26 14:40:38;;;;;;;0.40;0.40;;;15.30;93.90;;;;;;5054342;28;20275;-64
2022/12/26 14:43:33;;;;;;;0.40;0.40;;;15.30;93.90;;;;;;5054563;28;20217;-65
2022/12/26 14:46:56;;;;;;;0.40;0.40;;;15.30;94.00;;;;;;5054110;28;20201;-65
2022/12/26 14:49:44;;;;;;;0.40;0.40;;;15.30;94.00;;;;;;5031702;28;20717;-65
2022/12/26 14:52:40;;;;;;;0.40;0.40;;;15.30;94.00;;;;;;5055148;28;20279;-64
2022/12/26 14:55:47;;;;;;;0.40;0.40;;;15.30;94.00;;;;;;5055022;28;20203;-64
2022/12/26 14:58:43;;;;;;;0.40;0.40;;;15.30;94.00;;;;;;5054165;28;20211;-64
2022/12/26 15:01:59;;;;;;;0.40;0.40;;;15.30;94.00;;;;;;5054806;28;20198;-64
2022/12/26 15:05:07;;;;;;;0.40;0.40;;;15.30;94.00;;;;;;5053394;28;20202;-65
2022/12/26 15:08:34;;;;;;;0.40;0.40;;;15.30;94.00;;;;;;5054646;28;20197;-65
2022/12/26 15:11:50;;;;;;;0.40;0.40;;;15.30;94.00;;;;;;5053766;28;20248;-64
2022/12/26 15:15:08;;;;;;;0.40;0.40;;;15.30;93.90;;;;;;5054352;28;20292;-65
2022/12/26 15:18:14;;;;;;;0.40;0.40;;;15.30;93.90;;;;;;5054384;28;20237;-65
2022/12/26 15:21:32;;;;;;;0.40;0.40;;;15.30;93.90;;;;;;5053957;28;20274;-65
2022/12/26 15:25:05;;;;;;;0.40;0.40;;;15.30;93.90;;;;;;5054138;28;20278;-64
2022/12/26 15:28:52;;;;;;;0.40;0.40;;;15.40;93.90;;;;;;5053878;28;20198;-65
2022/12/26 15:31:55;;;;;;;0.40;0.40;;;15.40;94.00;;;;;;5053614;28;20228;-65
2022/12/26 15:34:57;;;;;;;0.40;0.40;;;15.40;94.00;;;;;;5054010;28;20268;-64
2022/12/26 15:38:04;;;;;;;0.40;0.40;;;15.30;93.80;;;;;;5052594;28;20331;-65
2022/12/26 15:41:08;;;;;;;0.40;0.40;;;15.40;94.00;;;;;;5052901;28;20247;-65
2022/12/26 15:44:10;;;;;;;0.40;0.40;;;15.30;93.90;;;;;;5053459;28;20260;-65
2022/12/26 15:47:11;;;;;;;0.40;0.40;;;15.30;93.90;;;;;;5053824;28;20201;-65
2022/12/26 15:50:11;;;;;;;0.40;0.40;;;15.30;93.90;;;;;;5053364;28;20285;-64
2022/12/26 15:53:12;;;;;;;0.40;0.40;;;15.30;93.90;;;;;;5053008;28;20350;-64
2022/12/26 15:56:17;;;;;;;0.40;0.40;;;15.30;93.90;;;;;;5052997;28;20624;-64
2022/12/26 15:59:32;;;;;;;0.40;0.40;;;15.30;93.90;;;;;;5053323;28;20246;-65
2022/12/26 16:02:39;;;;;;;0.40;0.40;;;15.30;93.90;;;;;;5053382;28;20310;-64
2022/12/26 16:05:52;;;;;;;0.40;0.40;;;15.30;93.90;;;;;;5053066;28;20688;-65
2022/12/26 16:09:22;;;;;;;0.40;0.40;;;15.30;94.00;;;;;;5052855;28;20200;-64
2022/12/26 16:12:29;;;;;;;0.40;0.40;;;15.30;93.90;;;;;;5053721;28;20337;-64
2022/12/26 16:15:23;;;;;;;0.40;0.40;;;15.30;94.00;;;;;;5052357;28;20291;-65
2022/12/26 16:18:16;;;;;;;0.40;0.40;;;15.30;94.10;;;;;;5052393;28;20286;-65
2022/12/26 16:24:15;;;;;;;0.40;0.40;;;15.30;94.00;;;;;;5053018;28;20659;-65
2022/12/26 16:27:06;;;;;;;0.40;0.40;;;15.40;94.10;;;;;;5053014;28;20201;-65
2022/12/26 16:29:58;;;;;;;0.40;0.40;;;15.30;94.10;;;;;;5052673;28;20209;-64
2022/12/26 16:32:47;;;;;;;0.40;0.40;;;15.30;94.00;;;;;;5051923;28;20224;-64
2022/12/26 16:35:38;;;;;;;0.40;0.40;;;15.30;94.00;;;;;;5052814;28;20286;-65
2022/12/26 16:38:30;;;;;;;0.40;0.40;;;15.40;94.10;;;;;;5052292;28;20280;-64
2022/12/26 16:41:21;;;;;;;0.40;0.40;;;15.30;94.00;;;;;;5052159;28;20331;-65
2022/12/26 16:44:27;;;;;;;0.40;0.40;;;15.30;94.00;;;;;;5052338;28;20595;-65
2022/12/26 16:47:18;;;;;;;0.40;0.40;;;15.30;94.00;;;;;;5053162;28;20201;-64
2022/12/26 16:50:08;;;;;;;0.40;0.40;;;15.30;94.10;;;;;;5056781;28;20197;-65
2022/12/26 16:53:08;;;;;;;0.40;0.40;;;15.30;94.10;;;;;;5056751;28;20232;-65
2022/12/26 16:56:11;;;;;;;0.40;0.40;;;15.30;94.10;;;;;;5057041;28;20244;-65
2022/12/26 16:59:04;;;;;;;0.40;0.40;;;15.30;94.20;;;;;;5056570;28;20200;-64
2022/12/26 17:01:55;;;;;;;0.40;0.40;;;15.30;94.20;;;;;;5056702;28;20246;-65
2022/12/26 17:04:50;;;;;;;0.40;0.40;;;15.30;94.10;;;;;;5056634;28;20292;-65
2022/12/26 17:07:49;;;;;;;0.40;0.40;;;15.30;94.20;;;;;;5056851;28;20204;-65
2022/12/26 17:10:37;;;;;;;0.40;0.40;;;15.20;94.10;;;;;;5056353;28;20197;-65
2022/12/26 17:13:26;;;;;;;0.40;0.40;;;15.30;94.10;;;;;;5055739;28;20225;-64
2022/12/26 17:16:14;;;;;;;0.40;0.40;;;15.20;94.10;;;;;;5056568;28;20206;-64
2022/12/26 17:19:11;;;;;;;0.40;0.40;;;15.30;94.20;;;;;;5056901;28;20248;-64
2022/12/26 17:22:20;;;;;;;0.40;0.40;;;15.20;94.00;;;;;;5056376;28;20229;-65
2022/12/26 17:25:25;;;;;;;0.40;0.40;;;15.20;94.10;;;;;;5056635;28;20201;-65
2022/12/26 17:28:23;;;;;;;0.40;0.40;;;15.20;94.10;;;;;;5055650;28;20194;-65
2022/12/26 17:31:16;;;;;;;0.40;0.40;;;15.30;94.20;;;;;;5055257;28;20206;-65
2022/12/26 17:34:12;;;;;;;0.40;0.40;;;15.30;94.20;;;;;;5055752;28;20485;-64